createdAt,value
2022-08-16T00:01:22.185Z,100578.84
2022-08-16T00:03:54.128Z,100574.94
2022-08-16T00:06:21.946Z,100587.41
2022-08-16T00:08:49.483Z,100584.69
2022-08-16T00:11:16.796Z,100586.63
2022-08-16T00:13:54.174Z,100583.31
2022-08-16T00:17:01.068Z,100587.38
2022-08-16T00:19:17.166Z,100583.41
2022-08-16T00:21:46.869Z,100595.81
2022-08-16T00:24:31.098Z,100589.88
2022-08-16T00:27:04.072Z,100590.34
2022-08-16T00:29:32.016Z,100588.72
2022-08-16T00:32:06.059Z,100601.06
2022-08-16T00:34:43.999Z,100600.91
2022-08-16T00:37:20.874Z,100586.94
2022-08-16T00:39:56.926Z,100601.22
2022-08-16T00:42:30.712Z,100606.16
2022-08-16T00:45:09.712Z,100600.00
2022-08-16T00:47:49.597Z,100610.72
2022-08-16T00:50:20.376Z,100611.19
2022-08-16T00:52:50.899Z,100606.31
2022-08-16T00:55:20.139Z,100586.00
2022-08-16T00:57:59.482Z,100601.66
2022-08-16T01:00:30.378Z,100603.22
2022-08-16T01:03:02.672Z,100606.22
2022-08-16T01:05:30.513Z,100601.13
2022-08-16T01:08:35.463Z,100603.75
2022-08-16T01:10:52.842Z,100603.97
2022-08-16T01:13:26.931Z,100609.75
2022-08-16T01:16:01.125Z,100609.13
2022-08-16T01:18:39.860Z,100600.41
2022-08-16T01:21:25.309Z,100606.38
2022-08-16T01:24:51.415Z,100609.59
2022-08-16T01:27:18.945Z,100613.69
2022-08-16T01:29:58.195Z,100605.59
2022-08-16T01:32:31.427Z,100603.97
2022-08-16T01:35:00.765Z,100608.22
2022-08-16T01:37:27.601Z,100606.72
2022-08-16T01:40:07.154Z,100594.16
2022-08-16T01:42:37.079Z,100594.22
2022-08-16T01:45:11.375Z,100598.69
2022-08-16T01:47:49.451Z,100601.69
2022-08-16T01:50:42.549Z,100592.81
2022-08-16T01:53:10.170Z,100603.69
2022-08-16T01:55:40.631Z,100609.69
2022-08-16T01:58:07.497Z,100607.34
2022-08-16T02:00:40.491Z,100610.59
2022-08-16T02:03:08.045Z,100616.56
2022-08-16T02:05:42.150Z,100607.88
2022-08-16T02:08:32.790Z,100613.84
2022-08-16T02:11:00.546Z,100594.06
2022-08-16T02:13:32.655Z,100603.03
2022-08-16T02:15:59.932Z,100602.59
2022-08-16T02:18:26.682Z,100569.50
2022-08-16T02:20:53.921Z,100594.34
2022-08-16T02:23:21.519Z,100592.44
2022-08-16T02:25:53.728Z,100600.97
2022-08-16T02:28:23.526Z,100599.50
2022-08-16T02:30:51.700Z,100594.41
2022-08-16T02:33:24.405Z,100594.84
2022-08-16T02:35:55.129Z,100594.22
2022-08-16T02:38:28.356Z,100598.28
2022-08-16T02:40:57.906Z,100595.06
2022-08-16T02:43:33.193Z,100591.47
2022-08-16T02:46:00.044Z,100595.50
2022-08-16T02:48:31.104Z,100598.50
2022-08-16T02:51:06.291Z,100601.50
2022-08-16T02:53:43.092Z,100597.03
2022-08-16T02:56:14.938Z,100600.03
2022-08-16T02:58:42.381Z,100598.53
2022-08-16T03:01:24.341Z,100598.75
2022-08-16T03:04:39.613Z,100599.44
2022-08-16T03:06:48.232Z,100595.19
2022-08-16T03:09:17.714Z,100593.31
2022-08-16T03:11:44.853Z,100589.69
2022-08-16T03:14:12.340Z,100578.66
2022-08-16T03:16:59.117Z,100579.72
2022-08-16T03:19:48.378Z,100583.75
2022-08-16T03:22:19.511Z,100586.34
2022-08-16T03:24:57.429Z,100582.94
2022-08-16T03:27:25.340Z,100584.22
2022-08-16T03:29:57.994Z,100577.66
2022-08-16T03:32:26.746Z,100588.75
2022-08-16T03:34:56.163Z,100590.00
2022-08-16T03:37:23.351Z,100596.63
2022-08-16T03:39:56.575Z,100593.44
2022-08-16T03:42:28.501Z,100590.69
2022-08-16T03:45:03.305Z,100599.00
2022-08-16T03:47:34.328Z,100594.53
2022-08-16T03:50:25.932Z,100598.38
2022-08-16T03:53:00.544Z,100598.81
2022-08-16T03:55:39.997Z,100612.63
2022-08-16T03:58:12.638Z,100610.53
2022-08-16T04:00:41.259Z,100603.94
2022-08-16T04:03:08.751Z,100617.34
2022-08-16T04:05:47.323Z,100616.50
2022-08-16T04:08:24.078Z,100614.81
2022-08-16T04:10:53.141Z,100615.03
2022-08-16T04:13:59.407Z,100620.56
2022-08-16T04:16:07.791Z,100624.38
2022-08-16T04:18:38.793Z,100626.31
2022-08-16T04:21:06.066Z,100625.00
2022-08-16T04:23:32.587Z,100620.09
2022-08-16T04:26:02.145Z,100627.75
2022-08-16T04:28:55.798Z,100625.00
2022-08-16T04:31:18.064Z,100629.06
2022-08-16T04:33:50.996Z,100633.28
2022-08-16T04:36:20.059Z,100633.94
2022-08-16T04:38:50.026Z,100639.31
2022-08-16T04:41:19.832Z,100638.22
2022-08-16T04:44:00.328Z,100630.75
2022-08-16T04:47:02.719Z,100623.72
2022-08-16T04:49:18.408Z,100632.03
2022-08-16T04:51:45.644Z,100637.16
2022-08-16T04:54:20.843Z,100643.09
2022-08-16T04:56:49.869Z,100647.13
2022-08-16T04:59:20.457Z,100648.81
2022-08-16T05:01:59.233Z,100641.34
2022-08-16T05:04:26.146Z,100647.53
2022-08-16T05:06:57.318Z,100649.91
2022-08-16T05:09:24.452Z,100639.56
2022-08-16T05:11:53.274Z,100651.41
2022-08-16T05:14:45.677Z,100657.75
2022-08-16T05:17:13.948Z,100663.66
2022-08-16T05:19:40.603Z,100657.03
2022-08-16T05:22:18.180Z,100660.09
2022-08-16T05:24:45.077Z,100656.44
2022-08-16T05:27:13.946Z,100658.84
2022-08-16T05:29:56.824Z,100659.78
2022-08-16T05:32:32.427Z,100662.56
2022-08-16T05:35:07.702Z,100653.66
2022-08-16T05:37:40.226Z,100653.88
2022-08-16T05:40:08.374Z,100648.84
2022-08-16T05:42:37.513Z,100656.69
2022-08-16T05:45:06.919Z,100650.94
2022-08-16T05:47:33.659Z,100657.94
2022-08-16T05:50:10.294Z,100668.03
2022-08-16T05:52:46.131Z,100671.03
2022-08-16T05:55:13.585Z,100671.31
2022-08-16T05:57:40.231Z,100669.88
2022-08-16T06:00:11.994Z,100677.16
2022-08-16T06:02:38.643Z,100680.50
2022-08-16T06:05:06.653Z,100675.44
2022-08-16T06:07:38.531Z,100643.59
2022-08-16T06:10:06.855Z,100682.44
2022-08-16T06:12:36.685Z,100674.53
2022-08-16T06:15:11.478Z,100673.13
2022-08-16T06:17:44.165Z,100670.06
2022-08-16T06:20:25.437Z,100678.72
2022-08-16T06:23:03.316Z,100680.75
2022-08-16T06:25:36.237Z,100681.19
2022-08-16T06:28:08.573Z,100688.97
2022-08-16T06:30:43.513Z,100684.00
2022-08-16T06:33:22.280Z,100691.44
2022-08-16T06:35:54.664Z,100681.75
2022-08-16T06:38:33.935Z,100688.59
2022-08-16T06:41:05.721Z,100678.75
2022-08-16T06:43:33.573Z,100686.63
2022-08-16T06:46:03.803Z,100694.34
2022-08-16T06:48:32.942Z,100690.00
2022-08-16T06:51:03.297Z,100687.94
2022-08-16T06:53:32.557Z,100697.41
2022-08-16T06:56:05.931Z,100689.78
2022-08-16T06:58:34.397Z,100689.66
2022-08-16T07:01:04.714Z,100691.66
2022-08-16T07:03:55.240Z,100698.47
2022-08-16T07:06:26.767Z,100695.22
2022-08-16T07:08:54.307Z,100699.97
2022-08-16T07:11:47.917Z,100696.03
2022-08-16T07:14:26.447Z,100691.94
2022-08-16T07:16:57.784Z,100688.97
2022-08-16T07:20:03.734Z,100701.66
2022-08-16T07:22:37.444Z,100698.81
2022-08-16T07:24:59.024Z,100703.31
2022-08-16T07:27:25.976Z,100712.78
2022-08-16T07:29:55.711Z,100712.66
2022-08-16T07:32:29.160Z,100712.06
2022-08-16T07:34:56.516Z,100705.00
2022-08-16T07:37:25.119Z,100710.47
2022-08-16T07:39:52.567Z,100726.66
2022-08-16T07:42:34.888Z,100724.25
2022-08-16T07:45:03.374Z,100729.25
2022-08-16T07:47:35.197Z,100731.47
2022-08-16T07:50:07.470Z,100728.88
2022-08-16T07:52:38.982Z,100724.69
2022-08-16T07:55:08.043Z,100724.69
2022-08-16T07:57:40.112Z,100720.97
2022-08-16T08:00:21.733Z,100711.00
2022-08-16T08:02:55.657Z,100721.34
2022-08-16T08:05:25.424Z,100715.81
2022-08-16T08:08:03.175Z,100707.25
2022-08-16T08:10:38.962Z,100726.56
2022-08-16T08:13:05.841Z,100726.22
2022-08-16T08:15:34.571Z,100724.69
2022-08-16T08:18:29.991Z,100730.66
2022-08-16T08:20:59.289Z,100740.28
2022-08-16T08:23:26.442Z,100736.59
2022-08-16T08:25:55.825Z,100735.22
2022-08-16T08:28:22.874Z,100732.13
2022-08-16T08:31:01.477Z,100743.66
2022-08-16T08:33:31.516Z,100748.75
2022-08-16T08:36:01.418Z,100746.72
2022-08-16T08:38:43.700Z,100745.69
2022-08-16T08:41:15.408Z,100737.84
2022-08-16T08:43:46.456Z,100739.81
2022-08-16T08:46:18.308Z,100746.91
2022-08-16T08:48:59.267Z,100743.69
2022-08-16T08:51:35.939Z,100746.84
2022-08-16T08:54:09.495Z,100747.38
2022-08-16T08:56:45.835Z,100746.13
2022-08-16T08:59:19.873Z,100762.53
2022-08-16T09:01:57.014Z,100760.47
2022-08-16T09:04:26.551Z,100751.56
2022-08-16T09:06:56.119Z,100763.72
2022-08-16T09:09:25.286Z,100753.84
2022-08-16T09:12:06.438Z,100760.94
2022-08-16T09:14:34.531Z,100764.44
2022-08-16T09:17:14.068Z,100762.09
2022-08-16T09:19:50.312Z,100762.09
2022-08-16T09:22:22.641Z,100764.69
2022-08-16T09:24:53.254Z,100765.84
2022-08-16T09:27:23.315Z,100772.72
2022-08-16T09:30:00.126Z,100777.75
2022-08-16T09:32:30.942Z,100774.91
2022-08-16T09:35:05.530Z,100775.78
2022-08-16T09:37:37.571Z,100775.72
2022-08-16T09:40:31.963Z,100773.78
2022-08-16T09:43:05.843Z,100762.84
2022-08-16T09:45:39.194Z,100781.72
2022-08-16T09:48:36.877Z,100778.31
2022-08-16T09:50:59.461Z,100776.16
2022-08-16T09:53:32.964Z,100786.81
2022-08-16T09:56:03.061Z,100785.41
2022-08-16T09:59:05.743Z,100782.94
2022-08-16T10:01:26.851Z,100777.78
2022-08-16T10:04:01.911Z,100775.94
2022-08-16T10:06:34.726Z,100778.19
2022-08-16T10:09:12.289Z,100771.59
2022-08-16T10:12:11.662Z,100767.72
2022-08-16T10:14:46.902Z,100779.03
2022-08-16T10:17:13.738Z,100770.47
2022-08-16T10:19:50.369Z,100780.41
2022-08-16T10:22:18.408Z,100780.38
2022-08-16T10:24:56.051Z,100780.59
2022-08-16T10:27:30.068Z,100774.06
2022-08-16T10:30:26.018Z,100780.94
2022-08-16T10:32:55.662Z,100776.97
2022-08-16T10:35:33.004Z,100782.72
2022-08-16T10:38:01.555Z,100783.66
2022-08-16T10:40:30.642Z,100785.75
2022-08-16T10:43:03.402Z,100784.47
2022-08-16T10:45:37.002Z,100796.22
2022-08-16T10:48:27.421Z,100789.81
2022-08-16T10:50:59.878Z,100789.00
2022-08-16T10:53:32.784Z,100790.84
2022-08-16T10:56:55.828Z,100786.03
2022-08-16T11:13:21.081Z,100800.13
2022-08-16T11:18:54.727Z,100806.69
2022-08-16T11:21:28.981Z,100800.81
2022-08-16T11:23:59.858Z,100798.00
2022-08-16T11:26:27.819Z,100810.84
2022-08-16T11:29:14.037Z,100802.81
2022-08-16T11:31:43.371Z,100807.34
2022-08-16T11:34:14.253Z,100807.81
2022-08-16T11:36:53.786Z,100806.09
2022-08-16T11:39:59.631Z,100805.34
2022-08-16T11:42:32.237Z,100809.53
2022-08-16T11:45:08.574Z,100809.13
2022-08-16T11:47:35.167Z,100813.38
2022-08-16T11:50:04.277Z,100813.91
2022-08-16T11:52:33.371Z,100816.31
2022-08-16T11:55:02.492Z,100814.13
2022-08-16T11:57:29.941Z,100814.00
2022-08-16T11:59:58.799Z,100816.22
2022-08-16T12:02:30.913Z,100813.47
2022-08-16T12:05:00.009Z,100816.47
2022-08-16T12:07:28.609Z,100818.88
2022-08-16T12:09:55.213Z,100819.38
2022-08-16T12:12:25.789Z,100818.66
2022-08-16T12:15:00.368Z,100835.88
2022-08-16T12:17:31.705Z,100827.84
2022-08-16T12:20:05.078Z,100821.75
2022-08-16T12:22:36.713Z,100832.00
2022-08-16T12:25:06.671Z,100827.41
2022-08-16T12:27:36.272Z,100828.06
2022-08-16T12:30:21.358Z,100817.66
2022-08-16T12:32:58.032Z,100827.88
2022-08-16T12:35:27.548Z,100822.75
2022-08-16T12:37:56.955Z,100826.19
2022-08-16T12:40:32.880Z,100827.13
2022-08-16T12:43:01.748Z,100829.53
2022-08-16T12:45:33.881Z,100817.41
2022-08-16T12:48:36.576Z,100824.69
2022-08-16T12:51:19.886Z,100827.66
2022-08-16T12:53:52.539Z,100820.03
2022-08-16T12:56:26.052Z,100835.09
2022-08-16T12:58:55.890Z,100831.88
2022-08-16T13:01:29.026Z,100839.63
2022-08-16T13:04:20.500Z,100825.44
2022-08-16T13:06:48.439Z,100837.09
2022-08-16T13:09:20.757Z,100823.88
2022-08-16T13:12:00.530Z,100836.13
2022-08-16T13:14:41.082Z,100820.19
2022-08-16T13:17:18.542Z,100829.59
2022-08-16T13:22:34.979Z,100823.56
2022-08-16T13:25:02.025Z,100830.81
2022-08-16T13:27:59.875Z,100833.28
2022-08-16T13:30:36.241Z,100822.97
2022-08-16T13:33:11.279Z,100829.66
2022-08-16T13:35:46.265Z,100826.97
2022-08-16T13:38:25.803Z,100825.66
2022-08-16T13:40:56.764Z,100830.31
2022-08-16T13:43:26.901Z,100827.09
2022-08-16T13:45:56.308Z,100824.94
2022-08-16T13:48:37.070Z,100830.00
2022-08-16T13:51:17.062Z,100839.44
2022-08-16T13:53:59.239Z,100815.75
2022-08-16T13:56:35.922Z,100827.88
2022-08-16T13:59:19.769Z,100830.22
2022-08-16T14:01:55.641Z,100844.13
2022-08-16T14:04:26.545Z,100835.00
2022-08-16T14:06:54.862Z,100836.03
2022-08-16T14:09:23.688Z,100844.22
2022-08-16T14:11:53.398Z,100839.38
2022-08-16T14:14:21.652Z,100843.69
2022-08-16T14:16:55.880Z,100832.97
2022-08-16T14:19:26.551Z,100833.81
2022-08-16T14:22:14.739Z,100835.19
2022-08-16T14:24:47.782Z,100840.56
2022-08-16T14:27:22.603Z,100827.47
2022-08-16T14:29:51.237Z,100825.84
2022-08-16T14:32:32.940Z,100825.69
2022-08-16T14:35:07.677Z,100826.88
2022-08-16T14:37:35.155Z,100824.03
2022-08-16T14:40:04.385Z,100840.47
2022-08-16T14:42:31.846Z,100832.41
2022-08-16T14:45:00.423Z,100836.13
2022-08-16T14:47:31.599Z,100837.84
2022-08-16T14:50:01.305Z,100842.41
2022-08-16T14:52:54.153Z,100844.13
2022-08-16T14:55:14.820Z,100842.69
2022-08-16T14:57:42.614Z,100842.94
2022-08-16T15:00:18.194Z,100843.16
2022-08-16T15:02:49.874Z,100839.72
2022-08-16T15:05:23.035Z,100834.59
2022-08-16T15:07:53.098Z,100834.03
2022-08-16T15:10:24.396Z,100838.56
2022-08-16T15:12:56.313Z,100837.97
2022-08-16T15:15:27.527Z,100835.56
2022-08-16T15:17:56.941Z,100837.25
2022-08-16T15:20:29.619Z,100841.44
2022-08-16T15:22:59.630Z,100843.81
2022-08-16T15:25:30.809Z,100838.03
2022-08-16T15:28:00.881Z,100842.16
2022-08-16T15:30:58.410Z,100839.75
2022-08-16T15:33:20.818Z,100826.38
2022-08-16T15:35:50.599Z,100839.94
2022-08-16T15:38:57.353Z,100832.69
2022-08-16T15:41:06.028Z,100837.25
2022-08-16T15:43:39.498Z,100839.25
2022-08-16T15:46:55.655Z,100843.28
2022-08-16T15:49:14.815Z,100839.91
2022-08-16T15:51:45.051Z,100851.81
2022-08-16T15:54:29.651Z,100855.28
2022-08-16T15:57:04.337Z,100843.22
2022-08-16T15:59:49.326Z,100859.59
2022-08-16T16:02:27.649Z,100858.22
2022-08-16T16:04:57.131Z,100864.13
2022-08-16T16:07:27.351Z,100857.69
2022-08-16T16:09:56.644Z,100868.91
2022-08-16T16:15:12.213Z,100863.28
2022-08-16T16:17:38.762Z,100861.03
2022-08-16T16:20:13.141Z,100866.66
2022-08-16T16:22:43.557Z,100869.78
2022-08-16T16:25:10.572Z,100866.94
2022-08-16T16:27:37.194Z,100881.31
2022-08-16T16:30:32.855Z,100863.53
2022-08-16T16:32:58.092Z,100876.50
2022-08-16T16:35:26.357Z,100869.47
2022-08-16T16:37:56.538Z,100872.91
2022-08-16T16:40:32.787Z,100876.59
2022-08-16T16:43:00.434Z,100861.16
2022-08-16T16:45:34.704Z,100862.00
2022-08-16T16:48:12.706Z,100864.19
2022-08-16T16:50:44.721Z,100859.13
2022-08-16T16:53:17.275Z,100862.81
2022-08-16T16:55:51.568Z,100864.19
2022-08-16T16:58:43.236Z,100852.69
2022-08-16T17:01:11.241Z,100858.00
2022-08-16T17:03:38.512Z,100863.06
2022-08-16T17:06:09.198Z,100855.19
2022-08-16T17:08:41.592Z,100840.53
2022-08-16T17:11:10.397Z,100832.38
2022-08-16T17:13:38.425Z,100854.91
2022-08-16T17:16:05.332Z,100855.41
2022-08-16T17:19:16.282Z,100860.50
2022-08-16T17:21:22.978Z,100860.16
2022-08-16T17:23:58.582Z,100854.25
2022-08-16T17:26:33.185Z,100855.63
2022-08-16T17:29:10.843Z,100861.78
2022-08-16T17:31:43.046Z,100858.66
2022-08-16T17:34:28.953Z,100860.53
2022-08-16T17:37:04.978Z,100865.53
2022-08-16T17:39:54.824Z,100858.47
2022-08-16T17:42:28.823Z,100856.16
2022-08-16T17:44:57.626Z,100857.56
2022-08-16T17:47:24.619Z,100867.34
2022-08-16T17:49:52.263Z,100862.81
2022-08-16T17:52:19.890Z,100870.09
2022-08-16T17:54:47.089Z,100873.09
2022-08-16T17:57:16.992Z,100874.44
2022-08-16T17:59:44.383Z,100868.81
2022-08-16T18:02:42.670Z,100869.59
2022-08-16T18:04:59.458Z,100875.97
2022-08-16T18:07:26.607Z,100875.34
2022-08-16T18:09:53.380Z,100869.38
2022-08-16T18:12:50.964Z,100879.69
2022-08-16T18:15:17.290Z,100863.97
2022-08-16T18:17:48.793Z,100862.72
2022-08-16T18:20:34.551Z,100872.44
2022-08-16T18:23:17.797Z,100868.75
2022-08-16T18:25:54.471Z,100867.47
2022-08-16T18:28:22.149Z,100880.91
2022-08-16T18:30:51.956Z,100881.19
2022-08-16T18:33:22.616Z,100861.44
2022-08-16T18:35:55.602Z,100852.34
2022-08-16T18:38:24.227Z,100876.47
2022-08-16T18:40:51.138Z,100864.38
2022-08-16T18:43:22.165Z,100859.75
2022-08-16T18:46:08.777Z,100879.59
2022-08-16T18:48:35.739Z,100875.03
2022-08-16T18:51:09.237Z,100882.53
2022-08-16T18:53:39.218Z,100879.31
2022-08-16T18:56:06.179Z,100890.78
2022-08-16T18:58:34.027Z,100894.03
2022-08-16T19:01:00.820Z,100890.56
2022-08-16T19:03:32.241Z,100885.41
2022-08-16T19:06:06.182Z,100894.00
2022-08-16T19:08:35.788Z,100893.31
2022-08-16T19:11:04.120Z,100897.97
2022-08-16T19:13:33.540Z,100905.91
2022-08-16T19:16:02.184Z,100905.69
2022-08-16T19:18:30.472Z,100923.38
2022-08-16T19:21:04.952Z,100936.94
2022-08-16T19:23:34.461Z,100926.44
2022-08-16T19:26:07.441Z,100929.66
2022-08-16T19:28:50.070Z,100939.16
2022-08-16T19:31:28.792Z,100941.50
2022-08-16T19:33:56.721Z,100955.97
2022-08-16T19:36:33.918Z,100949.19
2022-08-16T19:39:13.834Z,100958.94
2022-08-16T19:41:46.681Z,100959.69
2022-08-16T19:44:19.889Z,100964.59
2022-08-16T19:46:49.305Z,100962.06
2022-08-16T19:49:16.901Z,100958.56
2022-08-16T19:51:51.617Z,100970.56
2022-08-16T19:54:18.211Z,100972.41
2022-08-16T19:56:47.121Z,100979.59
2022-08-16T19:59:20.022Z,100980.94
2022-08-16T20:01:51.031Z,100982.19
2022-08-16T20:04:21.827Z,100977.94
2022-08-16T20:06:48.568Z,100979.19
2022-08-16T20:09:15.812Z,100972.72
2022-08-16T20:11:46.478Z,100975.75
2022-08-16T20:14:24.747Z,100972.63
2022-08-16T20:16:57.073Z,100969.72
2022-08-16T20:19:24.353Z,100977.75
2022-08-16T20:21:54.091Z,100984.31
2022-08-16T20:24:34.051Z,100975.19
2022-08-16T20:27:06.201Z,100985.63
2022-08-16T20:29:33.355Z,100990.25
2022-08-16T20:32:00.104Z,100992.28
2022-08-16T20:34:26.692Z,101000.78
2022-08-16T20:36:53.339Z,101001.75
2022-08-16T20:39:20.016Z,100998.25
2022-08-16T20:41:46.635Z,100981.84
2022-08-16T20:44:15.651Z,100989.00
2022-08-16T20:46:49.790Z,100982.94
2022-08-16T20:49:16.343Z,100988.34
2022-08-16T20:51:49.558Z,100980.09
2022-08-16T20:54:19.199Z,100982.25
2022-08-16T20:56:45.854Z,100982.72
2022-08-16T20:59:12.453Z,100985.38
2022-08-16T21:01:46.629Z,100994.69
2022-08-16T21:04:17.624Z,100981.25
2022-08-16T21:06:53.064Z,100973.31
2022-08-16T21:09:26.725Z,100984.22
2022-08-16T21:11:55.866Z,100994.78
2022-08-16T21:14:26.690Z,100996.31
2022-08-16T21:16:53.427Z,100996.56
2022-08-16T21:19:21.930Z,101005.41
2022-08-16T21:21:49.087Z,101014.25
2022-08-16T21:24:16.263Z,101009.38
2022-08-16T21:26:53.033Z,101011.53
2022-08-16T21:29:25.090Z,101013.09
2022-08-16T21:31:54.559Z,101009.06
2022-08-16T21:34:21.506Z,101010.59
2022-08-16T21:36:48.818Z,100998.84
2022-08-16T21:39:15.496Z,101002.56
2022-08-16T21:41:42.024Z,100988.97
2022-08-16T21:44:08.653Z,101002.00
2022-08-16T21:46:37.469Z,100990.34
2022-08-16T21:49:05.806Z,100990.81
2022-08-16T21:51:32.401Z,100986.56
2022-08-16T21:53:59.305Z,100989.59
2022-08-16T21:56:25.928Z,100982.78
2022-08-16T21:58:53.738Z,100993.28
2022-08-16T22:01:23.042Z,100987.59
2022-08-16T22:04:27.213Z,100997.38
2022-08-16T22:06:38.755Z,100998.31
2022-08-16T22:09:07.054Z,101001.16
2022-08-16T22:11:34.197Z,100993.47
2022-08-16T22:14:01.012Z,100998.75
2022-08-16T22:16:31.005Z,100992.50
2022-08-16T22:18:57.775Z,101006.50
2022-08-16T22:21:27.444Z,101007.38
2022-08-16T22:23:57.648Z,100997.31
2022-08-16T22:26:32.684Z,101010.34
2022-08-16T22:29:09.690Z,101003.47
2022-08-16T22:31:39.250Z,101005.16
2022-08-16T22:34:06.274Z,101008.59
2022-08-16T22:36:33.749Z,101004.94
2022-08-16T22:39:05.801Z,101003.25
2022-08-16T22:41:34.464Z,101011.38
2022-08-16T22:44:05.837Z,101007.72
2022-08-16T22:46:34.792Z,101004.94
2022-08-16T22:49:01.350Z,101006.66
2022-08-16T22:51:28.637Z,101005.16
2022-08-16T22:53:58.294Z,101005.66
2022-08-16T22:56:25.471Z,101001.16
2022-08-16T22:58:54.491Z,100991.38
2022-08-16T23:01:26.588Z,100995.63
2022-08-16T23:03:59.886Z,100992.19
2022-08-16T23:06:26.531Z,100994.16
2022-08-16T23:08:53.367Z,100984.56
2022-08-16T23:11:25.457Z,100991.38
2022-08-16T23:13:56.379Z,100992.69
2022-08-16T23:16:30.810Z,100989.91
2022-08-16T23:19:02.067Z,101004.66
2022-08-16T23:21:28.791Z,100999.53
2022-08-16T23:23:55.467Z,101000.16
2022-08-16T23:26:45.406Z,100987.16
2022-08-16T23:29:15.902Z,100994.06
2022-08-16T23:31:53.598Z,100993.59
2022-08-16T23:34:21.583Z,100990.59
2022-08-16T23:36:48.110Z,100978.59
2022-08-16T23:39:14.700Z,100982.69
2022-08-16T23:41:41.427Z,100979.97
2022-08-16T23:44:55.537Z,100980.59
2022-08-16T23:46:55.625Z,100986.84
2022-08-16T23:50:00.170Z,100981.28
2022-08-16T23:52:13.643Z,100969.16
2022-08-16T23:54:40.246Z,100984.13
2022-08-16T23:57:08.308Z,100973.50
2022-08-16T23:59:48.606Z,100984.84
